Time;durP1;ratioP1;P1;durP2;ratioP2;P2;SDS_P1;SDS_P2;PMS_P1;PMS_P2;Temp;Humidity;BMP_temperature;BMP_pressure;BME280_temperature;BME280_humidity;BME280_pressure;Samples;Min_cycle;Max_cycle;Signal;HPM_P1;HPM_P2
2022/12/27 00:02:18;;;;;;;1.08;1.08;;;;;;;-7.97;79.28;100134.50;4994414;28;20062;-84
2022/12/27 00:04:45;;;;;;;0.90;0.90;;;;;;;-7.87;79.20;100149.53;4994171;28;20501;-83
2022/12/27 00:07:13;;;;;;;0.93;0.93;;;;;;;-7.85;79.52;100144.19;4994076;28;20053;-84
2022/12/27 00:09:40;;;;;;;0.93;0.93;;;;;;;-7.81;79.53;100147.47;4994253;28;20073;-84
2022/12/27 00:12:08;;;;;;;0.93;0.93;;;;;;;-7.82;79.57;100135.28;4994835;28;20077;-84
2022/12/27 00:14:35;;;;;;;1.00;1.00;;;;;;;-7.87;79.54;100138.22;4994601;28;20046;-84
2022/12/27 00:17:02;;;;;;;1.00;1.00;;;;;;;-7.97;79.78;100131.91;4976745;28;20050;-83
2022/12/27 00:19:29;;;;;;;1.00;1.00;;;;;;;-7.94;80.15;100129.91;4994127;28;20064;-83
2022/12/27 00:21:56;;;;;;;1.05;1.05;;;;;;;-7.90;80.35;100134.03;4994089;28;20145;-83
2022/12/27 00:24:23;;;;;;;0.93;0.93;;;;;;;-7.88;80.26;100121.63;4994104;28;20054;-83
2022/12/27 00:26:50;;;;;;;1.13;1.13;;;;;;;-7.87;80.21;100120.72;4976717;28;20057;-83
2022/12/27 00:29:17;;;;;;;0.98;0.98;;;;;;;-7.93;80.54;100104.53;4976466;28;20046;-83
2022/12/27 00:31:44;;;;;;;0.85;0.85;;;;;;;-7.85;80.43;100121.47;4995601;28;20050;-84
2022/12/27 00:34:11;;;;;;;1.00;1.00;;;;;;;-7.88;80.57;100108.53;4995890;28;20046;-84
2022/12/27 00:36:40;;;;;;;0.98;0.98;;;;;;;-7.83;80.82;100110.03;4976919;28;20088;-84
2022/12/27 00:39:08;;;;;;;0.98;0.98;;;;;;;-7.79;81.02;100111.50;4992288;28;20057;-84
2022/12/27 00:41:35;;;;;;;0.90;0.90;;;;;;;-7.83;81.13;100105.63;4976741;28;20056;-83
2022/12/27 00:44:03;;;;;;;1.02;1.02;;;;;;;-7.77;81.30;100101.75;4993572;28;20058;-84
2022/12/27 00:46:30;;;;;;;0.90;0.90;;;;;;;-7.69;81.51;100083.75;4993660;28;20054;-84
2022/12/27 00:48:57;;;;;;;1.00;1.00;;;;;;;-7.70;81.43;100082.06;4976263;28;20486;-84
2022/12/27 00:51:24;;;;;;;0.77;0.77;;;;;;;-7.67;81.49;100080.09;4994738;28;20114;-84
2022/12/27 00:53:52;;;;;;;0.90;0.90;;;;;;;-7.67;81.53;100066.97;4993157;28;20057;-84
2022/12/27 00:56:23;;;;;;;0.95;0.95;;;;;;;-7.68;81.68;100067.06;5004642;28;20134;-85
2022/12/27 00:58:54;;;;;;;1.00;1.00;;;;;;;-7.65;81.71;100066.84;5009667;28;20077;-84
2022/12/27 01:01:23;;;;;;;0.80;0.80;;;;;;;-7.64;81.91;100069.38;4983091;28;20509;-84
2022/12/27 01:03:51;;;;;;;0.80;0.80;;;;;;;-7.61;81.96;100059.66;4993977;28;20054;-84
2022/12/27 01:06:22;;;;;;;0.80;0.80;;;;;;;-7.63;81.96;100041.38;4976215;28;20051;-84
2022/12/27 01:08:49;;;;;;;1.00;1.00;;;;;;;-7.66;82.27;100055.53;4986119;28;20054;-83
2022/12/27 01:11:17;;;;;;;0.93;0.93;;;;;;;-7.64;82.03;100048.41;4975225;28;20050;-83
2022/12/27 01:13:45;;;;;;;1.08;1.08;;;;;;;-7.55;82.11;100059.22;4977107;28;20053;-84
2022/12/27 01:16:18;;;;;;;0.98;0.98;;;;;;;-7.56;81.92;100040.03;4994544;28;20065;-83
2022/12/27 01:18:46;;;;;;;0.90;0.90;;;;;;;-7.57;82.00;100035.75;4976563;28;20429;-84
2022/12/27 01:21:16;;;;;;;0.88;0.88;;;;;;;-7.61;82.30;100031.66;4992923;28;20465;-83
2022/12/27 01:23:43;;;;;;;1.13;1.13;;;;;;;-7.61;82.12;100022.94;4993199;28;20612;-84
2022/12/27 01:26:12;;;;;;;0.98;0.98;;;;;;;-7.56;82.40;100016.44;4992823;28;20054;-83
2022/12/27 01:28:40;;;;;;;0.80;0.80;;;;;;;-7.60;82.20;100016.75;4993163;28;20076;-83
2022/12/27 01:31:09;;;;;;;1.00;1.00;;;;;;;-7.53;82.45;100015.38;4993399;28;20144;-84
2022/12/27 01:33:36;;;;;;;0.90;0.90;;;;;;;-7.55;82.49;100009.41;4994130;28;20046;-81
2022/12/27 01:36:12;;;;;;;0.80;0.80;;;;;;;-7.55;82.67;100012.84;4994493;28;20093;-82
2022/12/27 01:38:41;;;;;;;0.80;0.80;;;;;;;-7.49;82.92;100004.59;4979011;28;20070;-85
2022/12/27 01:44:23;;;;;;;;;;;;;;;-7.35;82.47;100005.41;4993886;28;20058;-83
2022/12/27 01:46:50;;;;;;;0.93;0.93;;;;;;;-7.36;82.29;99999.34;4994220;28;19929;-83
2022/12/27 01:49:17;;;;;;;0.90;0.90;;;;;;;-7.32;82.39;99998.16;4975766;28;20043;-84
2022/12/27 01:51:44;;;;;;;1.00;1.00;;;;;;;-7.33;82.37;99977.31;4975690;28;20108;-84
2022/12/27 01:54:11;;;;;;;0.90;0.90;;;;;;;-7.28;82.28;99990.94;4992444;28;20053;-83
2022/12/27 01:56:38;;;;;;;1.05;1.05;;;;;;;-7.33;82.08;99978.16;4975326;28;20049;-83
2022/12/27 01:59:07;;;;;;;1.00;1.00;;;;;;;-7.37;82.09;99967.97;4992139;28;20050;-83
2022/12/27 02:01:42;;;;;;;0.85;0.85;;;;;;;-7.35;82.00;99971.31;4975073;28;20109;-82
2022/12/27 02:04:12;;;;;;;0.90;0.90;;;;;;;-7.35;82.03;99980.03;4975020;28;20057;-83
2022/12/27 02:06:40;;;;;;;0.88;0.88;;;;;;;-7.33;82.00;99969.44;4959013;28;20508;-83
2022/12/27 02:09:10;;;;;;;1.10;1.10;;;;;;;-7.33;81.88;99972.06;4992126;28;20057;-83
2022/12/27 02:11:50;;;;;;;1.00;1.00;;;;;;;-7.32;82.10;99963.25;4992264;28;20628;-84
2022/12/27 02:14:41;;;;;;;1.00;1.00;;;;;;;-7.33;82.01;99965.03;4991881;28;20054;-83
2022/12/27 02:17:21;;;;;;;1.10;1.10;;;;;;;-7.36;81.89;99967.88;4950629;29;20661;-83
2022/12/27 02:20:13;;;;;;;0.90;0.90;;;;;;;-7.32;82.07;99969.31;4951022;29;20054;-83
2022/12/27 02:26:14;;;;;;;1.00;1.00;;;;;;;-7.30;82.00;99961.34;4951283;29;20051;-84
2022/12/27 02:28:41;;;;;;;1.10;1.10;;;;;;;-7.30;82.04;99962.19;4950935;29;20510;-84
2022/12/27 02:31:14;;;;;;;0.90;0.90;;;;;;;-7.31;82.22;99949.19;4950989;29;20458;-84
2022/12/27 02:33:47;;;;;;;0.70;0.70;;;;;;;-7.27;81.89;99940.16;4936970;29;20051;-85
2022/12/27 02:36:19;;;;;;;0.70;0.70;;;;;;;-7.32;81.77;99943.09;4934598;29;20063;-84
2022/12/27 02:38:50;;;;;;;0.90;0.90;;;;;;;-7.29;81.86;99944.66;4918862;29;20047;-84
2022/12/27 02:58:48;;;;;;;1.00;1.00;;;;;;;-7.31;82.21;99925.59;4875124;29;20045;-84
2022/12/27 03:04:34;;;;;;;0.93;0.93;;;;;;;-7.32;82.17;99901.13;4874751;29;20147;-84
2022/12/27 03:07:17;;;;;;;0.82;0.82;;;;;;;-7.28;82.11;99901.75;4874470;29;20057;-83
2022/12/27 03:16:05;;;;;;;0.90;0.90;;;;;;;-7.36;82.18;99886.56;4879048;29;20056;-84
2022/12/27 03:18:41;;;;;;;0.80;0.80;;;;;;;-7.36;82.20;99883.13;4877834;29;20140;-85
2022/12/27 03:26:46;;;;;;;0.90;0.90;;;;;;;-7.40;82.39;99869.34;4895274;29;20459;-84
2022/12/27 03:35:02;;;;;;;0.90;0.90;;;;;;;-7.50;82.47;99850.81;4979848;28;20051;-85
2022/12/27 03:40:33;;;;;;;0.93;0.93;;;;;;;-7.36;82.40;99862.97;4971445;28;20056;-84
2022/12/27 03:43:12;;;;;;;0.90;0.90;;;;;;;-7.42;82.32;99853.75;4968093;28;20051;-84
2022/12/27 03:49:03;;;;;;;1.00;1.00;;;;;;;-7.42;82.33;99853.75;4975147;28;20062;-84
2022/12/27 03:51:35;;;;;;;0.90;0.90;;;;;;;-7.42;82.22;99840.63;4975342;28;20050;-85
2022/12/27 03:54:09;;;;;;;0.88;0.88;;;;;;;-7.41;82.32;99846.72;4989182;28;20050;-83
2022/12/27 03:56:37;;;;;;;1.00;1.00;;;;;;;-7.40;82.07;99851.00;4977293;28;20054;-85
2022/12/27 03:59:05;;;;;;;1.00;1.00;;;;;;;-7.43;82.25;99846.81;4947457;28;20520;-83
2022/12/27 04:01:32;;;;;;;0.73;0.73;;;;;;;-7.39;82.02;99836.09;5014824;28;20058;-85
2022/12/27 04:03:59;;;;;;;1.00;1.00;;;;;;;-7.41;82.01;99821.31;5015126;28;20428;-85
2022/12/27 04:06:26;;;;;;;0.80;0.80;;;;;;;-7.39;82.00;99823.84;5014950;28;20045;-84
2022/12/27 04:36:34;;;;;;;1.00;1.00;;;;;;;-7.39;81.63;99770.53;4985735;28;20050;-85
2022/12/27 04:39:02;;;;;;;0.82;0.82;;;;;;;-7.41;81.52;99766.25;4984352;28;20521;-86
2022/12/27 04:55:49;;;;;;;0.90;0.90;;;;;;;-7.48;82.46;99735.34;5000850;28;20093;-87
2022/12/27 04:58:17;;;;;;;1.08;1.08;;;;;;;-7.58;82.43;99734.34;4980375;28;20096;-88
2022/12/27 05:03:41;;;;;;;0.90;0.90;;;;;;;-7.56;82.66;99735.91;4991798;28;20054;-88
2022/12/27 05:06:08;;;;;;;0.80;0.80;;;;;;;-7.52;82.81;99728.63;4961009;28;20101;-88
2022/12/27 05:14:30;;;;;;;0.88;0.88;;;;;;;-7.55;83.09;99715.75;4970319;28;20122;-93
2022/12/27 05:17:17;;;;;;;0.80;0.80;;;;;;;-7.51;82.80;99715.44;4961123;28;20047;-91
2022/12/27 05:19:49;;;;;;;0.90;0.90;;;;;;;-7.67;83.03;99701.75;4936939;29;20073;-92
2022/12/27 05:25:46;;;;;;;0.70;0.70;;;;;;;-7.61;83.26;99708.34;5237527;23;20470;-92
2022/12/27 05:28:31;;;;;;;0.70;0.70;;;;;;;-7.63;83.45;99674.38;4952951;28;20551;-94
2022/12/27 05:31:22;;;;;;;0.80;0.80;;;;;;;-7.60;83.56;99689.88;4976876;28;20046;-92
2022/12/27 05:34:06;;;;;;;;;;;;;;;-7.47;83.56;99714.25;4944021;28;20069;-93
2022/12/27 05:36:50;;;;;;;1.00;1.00;;;;;;;-7.61;83.65;99682.97;4974968;28;20382;-89
2022/12/27 05:39:17;;;;;;;0.90;0.90;;;;;;;-7.44;83.60;99703.53;4927768;28;20057;-90
2022/12/27 05:41:44;;;;;;;0.90;0.90;;;;;;;-7.43;83.51;99702.59;4923005;28;20071;-89
2022/12/27 05:44:12;;;;;;;0.77;0.77;;;;;;;-7.55;83.56;99685.13;4929287;29;20055;-89
2022/12/27 05:46:39;;;;;;;1.00;1.00;;;;;;;-7.49;83.74;99687.31;4961511;29;20046;-88
2022/12/27 05:49:08;;;;;;;1.10;1.10;;;;;;;-7.36;83.73;99700.34;4939253;29;20047;-89
2022/12/27 05:51:35;;;;;;;1.00;1.00;;;;;;;-7.32;83.75;99690.47;4959390;29;20055;-86
2022/12/27 05:54:02;;;;;;;0.80;0.80;;;;;;;-7.34;83.76;99706.34;4941227;29;20051;-91
2022/12/27 05:56:34;;;;;;;1.00;1.00;;;;;;;-7.34;83.83;99702.84;4923698;29;20077;-87
2022/12/27 05:59:06;;;;;;;0.70;0.70;;;;;;;-7.45;83.77;99680.03;4923027;29;20043;-87
2022/12/27 06:01:34;;;;;;;0.80;0.80;;;;;;;-7.43;84.24;99678.16;4598712;28;10000570;-86
2022/12/27 06:04:01;;;;;;;1.10;1.10;;;;;;;-7.40;83.90;99685.78;4968293;28;20053;-86
2022/12/27 06:06:28;;;;;;;0.70;0.70;;;;;;;-7.31;84.30;99685.13;4956319;28;20055;-85
2022/12/27 06:08:57;;;;;;;0.90;0.90;;;;;;;-7.29;84.16;99688.47;4942009;28;20058;-87
2022/12/27 06:11:24;;;;;;;0.90;0.90;;;;;;;-7.29;84.61;99684.97;4937708;28;20054;-85
2022/12/27 06:13:52;;;;;;;0.80;0.80;;;;;;;-7.24;84.28;99685.47;4971857;28;20050;-86
2022/12/27 06:16:20;;;;;;;1.00;1.00;;;;;;;-7.27;84.12;99677.84;4971675;28;20081;-86
2022/12/27 06:18:48;;;;;;;0.70;0.70;;;;;;;-7.26;84.37;99671.66;4938415;28;20047;-88
2022/12/27 06:21:18;;;;;;;0.90;0.90;;;;;;;-7.26;84.43;99675.13;4970374;28;20126;-89
2022/12/27 06:23:45;;;;;;;1.08;1.08;;;;;;;-7.23;84.47;99676.69;4931896;28;20046;-86
2022/12/27 06:26:14;;;;;;;0.82;0.82;;;;;;;-7.27;84.22;99689.16;4988222;28;20121;-86
2022/12/27 06:28:42;;;;;;;0.93;0.93;;;;;;;-7.23;84.32;99692.41;4972032;28;20046;-89
2022/12/27 06:31:09;;;;;;;1.00;1.00;;;;;;;-7.29;84.27;99691.09;4991348;28;20050;-86
2022/12/27 06:33:38;;;;;;;0.80;0.80;;;;;;;-7.28;84.26;99686.69;4958047;28;20046;-86
2022/12/27 06:36:09;;;;;;;0.93;0.93;;;;;;;-7.23;84.45;99679.31;4951991;28;20047;-87
2022/12/27 06:38:36;;;;;;;0.93;0.93;;;;;;;-7.26;84.32;99687.41;4967801;28;20070;-84
2022/12/27 06:41:08;;;;;;;1.00;1.00;;;;;;;-7.24;84.16;99683.72;4968109;28;20058;-84
2022/12/27 06:43:35;;;;;;;0.80;0.80;;;;;;;-7.27;84.17;99665.56;4971317;28;20042;-85
2022/12/27 06:46:07;;;;;;;0.93;0.93;;;;;;;-7.32;84.17;99659.00;4967174;28;20252;-87
2022/12/27 06:48:41;;;;;;;1.00;1.00;;;;;;;-7.34;84.54;99651.25;4937858;28;20210;-83
2022/12/27 06:51:10;;;;;;;0.80;0.80;;;;;;;-7.31;84.52;99648.41;4969028;28;20142;-85
2022/12/27 06:53:37;;;;;;;1.10;1.10;;;;;;;-7.27;84.46;99646.38;4988504;28;20073;-84
2022/12/27 06:56:08;;;;;;;1.10;1.10;;;;;;;-7.30;84.66;99650.06;4988329;28;20046;-86
2022/12/27 06:58:35;;;;;;;0.70;0.70;;;;;;;-7.30;84.54;99630.88;4972073;28;20525;-83
2022/12/27 07:01:10;;;;;;;1.00;1.00;;;;;;;-7.31;84.74;99626.59;4987350;28;20050;-85
2022/12/27 07:03:37;;;;;;;;;;;;;;;-7.26;85.01;99634.94;4954867;28;20050;-86
2022/12/27 07:06:06;;;;;;;1.20;1.20;;;;;;;-7.35;84.89;99627.75;4942557;28;20515;-87
2022/12/27 07:08:36;;;;;;;1.27;1.20;;;;;;;-7.30;85.14;99623.84;4975190;28;20165;-85
2022/12/27 07:11:06;;;;;;;0.85;0.85;;;;;;;-7.27;85.21;99626.22;4975882;28;20137;-85
2022/12/27 07:13:41;;;;;;;0.70;0.70;;;;;;;-7.23;85.44;99618.97;4994324;28;20053;-86
2022/12/27 07:16:11;;;;;;;0.80;0.80;;;;;;;-7.23;85.14;99609.31;4994216;28;20497;-87
2022/12/27 07:18:39;;;;;;;0.90;0.90;;;;;;;-7.10;85.34;99601.34;4991765;28;20050;-85
2022/12/27 07:21:07;;;;;;;0.70;0.70;;;;;;;-7.05;85.15;99599.19;4974652;28;20058;-86
2022/12/27 07:23:35;;;;;;;0.90;0.90;;;;;;;-7.09;85.02;99586.41;4975327;28;20141;-86
2022/12/27 07:26:08;;;;;;;0.90;0.90;;;;;;;-7.00;84.86;99589.19;4991113;28;20109;-86
2022/12/27 07:28:35;;;;;;;1.13;1.13;;;;;;;-6.99;84.96;99585.63;4974030;28;20112;-86
2022/12/27 07:31:07;;;;;;;0.88;0.88;;;;;;;-6.88;84.68;99581.31;4991102;28;20046;-87
2022/12/27 07:33:35;;;;;;;0.82;0.82;;;;;;;-6.83;84.92;99584.44;4958759;28;20081;-86
2022/12/27 07:36:05;;;;;;;1.00;1.00;;;;;;;-6.75;84.69;99582.03;4992490;28;20137;-87
2022/12/27 07:38:32;;;;;;;1.00;1.00;;;;;;;-6.84;84.77;99574.88;5002877;28;20145;-86
2022/12/27 07:41:00;;;;;;;0.80;0.80;;;;;;;-6.73;84.70;99581.91;4989546;28;20082;-87
2022/12/27 07:43:32;;;;;;;0.80;0.80;;;;;;;-6.80;84.51;99581.56;4978406;28;20054;-87
2022/12/27 07:46:18;;;;;;;1.00;1.00;;;;;;;-6.82;84.53;99588.72;4958419;28;20042;-86
2022/12/27 07:48:56;;;;;;;0.88;0.88;;;;;;;-6.85;84.50;99578.47;4976531;28;20058;-88
2022/12/27 07:51:24;;;;;;;0.70;0.70;;;;;;;-6.81;84.62;99575.47;4991891;28;20128;-86
2022/12/27 07:53:51;;;;;;;0.90;0.90;;;;;;;-6.87;84.70;99569.88;4992270;28;20517;-87
2022/12/27 07:56:24;;;;;;;1.00;1.00;;;;;;;-6.82;84.53;99570.34;4974608;28;20046;-87
2022/12/27 07:58:54;;;;;;;1.00;1.00;;;;;;;-6.83;84.43;99571.31;4994458;28;20133;-88
2022/12/27 08:01:22;;;;;;;0.80;0.80;;;;;;;-6.83;84.77;99555.56;4974181;28;20065;-87
2022/12/27 08:03:50;;;;;;;0.90;0.90;;;;;;;-6.83;84.60;99550.31;4975301;28;20101;-87
2022/12/27 08:06:29;;;;;;;0.90;0.90;;;;;;;-6.82;84.74;99542.28;4978820;28;20141;-87
2022/12/27 08:08:58;;;;;;;0.80;0.80;;;;;;;-6.80;84.92;99543.00;5001023;28;20160;-88
2022/12/27 08:11:31;;;;;;;0.98;0.98;;;;;;;-6.73;85.05;99545.16;4999347;28;20057;-88
2022/12/27 08:13:58;;;;;;;0.70;0.70;;;;;;;-6.72;85.00;99541.59;4977317;28;20050;-87
2022/12/27 08:16:25;;;;;;;0.70;0.70;;;;;;;-6.71;85.01;99533.56;4981699;28;20078;-87
2022/12/27 08:18:53;;;;;;;0.80;0.80;;;;;;;-6.68;85.35;99522.84;4989623;28;20057;-87
2022/12/27 08:21:21;;;;;;;0.85;0.85;;;;;;;-6.63;85.16;99520.69;4989553;28;20046;-88
2022/12/27 08:23:50;;;;;;;1.00;1.00;;;;;;;-6.56;85.21;99511.38;4964290;28;20494;-89
2022/12/27 08:26:19;;;;;;;0.70;0.70;;;;;;;-6.52;84.98;99511.13;4909877;28;1519384;-89
2022/12/27 08:29:11;;;;;;;0.90;0.90;;;;;;;-6.44;85.18;99499.03;4996530;28;20054;-87
2022/12/27 08:31:44;;;;;;;0.70;0.70;;;;;;;-6.49;84.90;99487.22;4973104;28;20117;-88
2022/12/27 08:34:12;;;;;;;0.80;0.80;;;;;;;-6.50;84.38;99478.53;5004014;28;20085;-87
2022/12/27 08:36:39;;;;;;;0.80;0.80;;;;;;;-6.47;84.52;99493.19;4965340;28;20058;-88
2022/12/27 08:39:23;;;;;;;0.80;0.80;;;;;;;-6.52;84.48;99490.94;4986862;28;20061;-88
2022/12/27 08:41:52;;;;;;;1.10;1.10;;;;;;;-6.47;84.50;99480.06;4964533;28;20050;-87
2022/12/27 08:44:20;;;;;;;0.80;0.80;;;;;;;-6.43;84.52;99491.97;4998020;28;20090;-91
2022/12/27 08:46:47;;;;;;;0.93;0.93;;;;;;;-6.48;84.51;99481.88;4999552;28;20052;-87
2022/12/27 08:49:14;;;;;;;0.90;0.90;;;;;;;-6.42;84.84;99478.72;4998196;28;20120;-87
2022/12/27 08:51:41;;;;;;;0.70;0.70;;;;;;;-6.35;84.82;99485.16;5000865;28;20046;-91
2022/12/27 08:54:10;;;;;;;0.63;0.63;;;;;;;-6.35;84.63;99484.31;4993952;28;20050;-87
2022/12/27 08:56:42;;;;;;;0.70;0.70;;;;;;;-6.30;84.60;99479.53;4986960;28;20054;-88
2022/12/27 08:59:09;;;;;;;0.80;0.80;;;;;;;-6.28;84.53;99474.97;4999329;28;20050;-90
2022/12/27 09:01:37;;;;;;;0.70;0.70;;;;;;;-6.25;84.50;99474.72;4974942;28;20050;-93
2022/12/27 09:04:13;;;;;;;1.00;1.00;;;;;;;-6.23;84.26;99466.72;4942242;28;20117;-91
2022/12/27 09:06:42;;;;;;;1.00;1.00;;;;;;;-6.25;84.67;99461.59;5001332;28;20069;-89
2022/12/27 09:09:09;;;;;;;0.88;0.88;;;;;;;-6.26;84.46;99465.16;5006863;28;20089;-90
2022/12/27 09:11:37;;;;;;;0.90;0.90;;;;;;;-6.24;84.63;99451.91;4989742;28;20074;-90
2022/12/27 09:14:05;;;;;;;0.80;0.80;;;;;;;-6.22;84.55;99440.31;4985651;28;20561;-90
2022/12/27 09:16:34;;;;;;;0.80;0.80;;;;;;;-6.18;84.41;99441.75;4968969;28;20043;-87
2022/12/27 09:19:26;;;;;;;1.00;1.00;;;;;;;-6.23;84.25;99422.88;4998139;28;20051;-88
2022/12/27 09:21:54;;;;;;;0.70;0.70;;;;;;;-6.24;84.42;99436.97;4650538;28;10000181;-90
2022/12/27 09:24:21;;;;;;;0.82;0.82;;;;;;;-6.27;84.37;99434.63;4993702;28;20050;-85
2022/12/27 09:26:48;;;;;;;0.80;0.80;;;;;;;-6.25;84.85;99435.31;4970328;28;20058;-90
2022/12/27 09:29:17;;;;;;;0.63;0.63;;;;;;;-6.32;84.49;99418.41;4959476;28;20050;-88
2022/12/27 09:31:44;;;;;;;0.80;0.80;;;;;;;-6.32;84.56;99418.41;4986277;28;20060;-90
2022/12/27 09:34:13;;;;;;;0.70;0.70;;;;;;;-6.27;84.95;99421.47;4972230;28;20057;-88
2022/12/27 09:36:42;;;;;;;0.88;0.88;;;;;;;-6.32;85.32;99421.84;4976794;28;20057;-89
2022/12/27 09:39:12;;;;;;;0.85;0.85;;;;;;;-6.32;85.14;99413.97;4948040;28;20051;-90
2022/12/27 09:41:43;;;;;;;0.90;0.90;;;;;;;-6.32;85.27;99424.47;4946978;28;20055;-91
2022/12/27 09:44:54;;;;;;;0.80;0.80;;;;;;;-6.42;85.63;99399.94;4972773;28;20051;-87
2022/12/27 09:47:50;;;;;;;0.90;0.90;;;;;;;-6.26;85.70;99417.06;4942081;28;20042;-90
2022/12/27 09:50:25;;;;;;;1.00;1.00;;;;;;;-6.28;85.58;99413.72;4991456;28;20030;-88
2022/12/27 09:53:05;;;;;;;0.90;0.90;;;;;;;-6.24;85.85;99410.72;4990710;28;20082;-89
2022/12/27 09:55:32;;;;;;;0.65;0.65;;;;;;;-6.20;85.86;99396.38;4932867;28;20043;-87
2022/12/27 09:58:35;;;;;;;0.80;0.80;;;;;;;-6.23;86.07;99391.34;4992264;28;20068;-86
2022/12/27 10:01:17;;;;;;;0.80;0.80;;;;;;;-6.23;85.97;99390.53;4950050;28;20050;-90
2022/12/27 10:03:46;;;;;;;0.70;0.70;;;;;;;-6.28;85.89;99383.00;4975393;28;20127;-85
2022/12/27 10:06:32;;;;;;;0.70;0.70;;;;;;;-6.21;86.12;99394.69;4961218;28;20050;-85
2022/12/27 10:09:34;;;;;;;0.90;0.90;;;;;;;-6.32;86.33;99384.25;4963885;28;20046;-85
2022/12/27 10:12:20;;;;;;;0.88;0.88;;;;;;;-6.23;86.33;99391.34;4965726;28;20054;-85
2022/12/27 10:15:36;;;;;;;0.80;0.80;;;;;;;-6.20;86.74;99385.88;4987456;28;20046;-83
2022/12/27 10:18:17;;;;;;;0.80;0.80;;;;;;;-6.14;86.53;99385.34;4968694;28;20043;-83
2022/12/27 10:20:52;;;;;;;0.70;0.70;;;;;;;-6.13;86.69;99371.25;4956469;28;20074;-86
2022/12/27 10:23:28;;;;;;;1.00;1.00;;;;;;;-6.19;86.66;99365.66;4970552;28;20078;-88
2022/12/27 10:26:04;;;;;;;0.70;0.70;;;;;;;-6.11;86.69;99366.69;4939826;28;20141;-89
2022/12/27 10:28:43;;;;;;;0.80;0.80;;;;;;;-6.07;86.78;99353.31;4959830;28;20053;-89
2022/12/27 10:31:16;;;;;;;0.80;0.80;;;;;;;-6.00;86.94;99364.94;4961006;28;20057;-86
2022/12/27 10:33:44;;;;;;;0.75;0.75;;;;;;;-5.99;86.98;99349.06;4990581;28;20150;-89
2022/12/27 10:36:24;;;;;;;0.70;0.70;;;;;;;-6.05;86.96;99325.06;4968475;28;20043;-87
2022/12/27 10:38:53;;;;;;;0.70;0.70;;;;;;;-6.01;86.68;99348.34;4996993;28;20137;-89
2022/12/27 10:41:29;;;;;;;0.75;0.75;;;;;;;-6.04;87.08;99332.84;5002185;28;20097;-88
2022/12/27 10:43:56;;;;;;;0.60;0.60;;;;;;;-6.03;86.82;99310.84;4954163;28;20102;-87
2022/12/27 10:46:31;;;;;;;0.70;0.70;;;;;;;-5.98;87.03;99308.66;4984597;28;20067;-90
2022/12/27 10:48:59;;;;;;;0.70;0.70;;;;;;;-5.91;86.84;99324.72;4964949;28;20070;-90
2022/12/27 10:51:42;;;;;;;0.70;0.70;;;;;;;-5.90;86.92;99326.34;4978658;28;20049;-90
2022/12/27 10:54:34;;;;;;;0.77;0.77;;;;;;;-5.96;87.04;99311.97;4974369;28;20073;-89
2022/12/27 10:57:29;;;;;;;0.80;0.80;;;;;;;-5.77;87.29;99319.09;4968957;28;20126;-89
2022/12/27 11:00:22;;;;;;;0.90;0.90;;;;;;;-5.88;87.18;99291.09;4967690;28;20065;-89
2022/12/27 11:02:59;;;;;;;0.70;0.70;;;;;;;-5.79;87.14;99300.00;4976318;28;20156;-87
2022/12/27 11:05:31;;;;;;;0.80;0.80;;;;;;;-5.82;87.21;99302.91;4993812;28;20064;-88
2022/12/27 11:08:02;;;;;;;0.80;0.80;;;;;;;-5.83;87.49;99293.31;4964733;28;20054;-85
2022/12/27 11:10:32;;;;;;;0.63;0.63;;;;;;;-5.87;87.58;99270.91;4966810;28;20050;-86
2022/12/27 11:13:05;;;;;;;0.60;0.60;;;;;;;-5.77;87.63;99282.28;4956643;28;20386;-86
2022/12/27 11:15:34;;;;;;;0.80;0.80;;;;;;;-5.78;87.98;99279.78;4981454;28;20187;-88
2022/12/27 11:18:11;;;;;;;0.80;0.80;;;;;;;-5.76;87.95;99262.91;4973824;28;20469;-89
2022/12/27 11:20:46;;;;;;;0.63;0.63;;;;;;;-5.77;87.90;99263.91;4957167;28;20051;-88
2022/12/27 11:23:15;;;;;;;0.70;0.70;;;;;;;-5.79;88.14;99257.09;4925126;29;20051;-88
2022/12/27 11:25:57;;;;;;;0.77;0.77;;;;;;;-5.79;88.09;99268.44;4923843;28;20067;-89
2022/12/27 11:28:37;;;;;;;0.70;0.70;;;;;;;-5.74;88.43;99262.78;4951831;28;20069;-89
2022/12/27 11:31:07;;;;;;;0.70;0.70;;;;;;;-5.74;88.44;99255.72;4956259;28;20050;-89
2022/12/27 11:33:39;;;;;;;0.68;0.68;;;;;;;-5.75;88.66;99266.38;4973362;28;20153;-89
2022/12/27 11:36:13;;;;;;;0.68;0.68;;;;;;;-5.80;88.84;99258.88;4979690;28;20544;-88
2022/12/27 11:38:43;;;;;;;0.73;0.73;;;;;;;-5.81;89.04;99238.81;4968976;28;20054;-86
2022/12/27 11:41:48;;;;;;;0.90;0.90;;;;;;;-5.75;89.15;99261.09;5001887;28;20579;-90
2022/12/27 11:44:19;;;;;;;0.80;0.80;;;;;;;-5.74;89.22;99247.84;4956846;28;20061;-90
2022/12/27 11:47:00;;;;;;;0.70;0.70;;;;;;;-5.83;89.36;99229.41;4978199;28;20074;-90
2022/12/27 11:49:39;;;;;;;0.68;0.68;;;;;;;-5.75;89.48;99243.53;4960084;28;20107;-89
2022/12/27 11:52:19;;;;;;;;;;;;;;;-5.74;89.77;99234.69;4970550;28;20050;-89
2022/12/27 11:55:12;;;;;;;0.70;0.70;;;;;;;-5.74;89.83;99232.06;4993501;28;19940;-88
2022/12/27 11:58:20;;;;;;;0.77;0.77;;;;;;;-5.82;89.77;99205.63;4983902;28;20096;-89
2022/12/27 12:01:22;;;;;;;0.68;0.68;;;;;;;-5.72;89.90;99224.88;4912712;28;20056;-89
2022/12/27 12:04:16;;;;;;;0.70;0.70;;;;;;;-5.69;90.21;99215.88;5001187;28;20106;-88
2022/12/27 12:07:15;;;;;;;0.65;0.65;;;;;;;-5.68;90.18;99215.75;5004752;28;20056;-89
2022/12/27 12:10:26;;;;;;;0.80;0.80;;;;;;;-5.59;90.38;99216.75;4980735;28;20057;-88
2022/12/27 12:12:54;;;;;;;0.85;0.85;;;;;;;-5.58;90.46;99222.81;4960997;28;20070;-89
2022/12/27 12:15:39;;;;;;;0.70;0.70;;;;;;;-5.54;90.52;99211.06;4947142;28;20056;-89
2022/12/27 12:18:48;;;;;;;0.60;0.60;;;;;;;-5.54;90.45;99200.56;4976826;28;20136;-89
2022/12/27 12:21:25;;;;;;;0.70;0.70;;;;;;;-5.50;90.44;99205.38;4936130;28;20112;-89
2022/12/27 12:24:20;;;;;;;0.70;0.70;;;;;;;-5.51;90.31;99200.28;4959827;28;20105;-88
2022/12/27 12:27:12;;;;;;;0.70;0.70;;;;;;;-5.54;90.35;99198.75;4971647;28;20106;-89
2022/12/27 12:30:19;;;;;;;0.75;0.75;;;;;;;-5.53;90.60;99178.53;4965285;28;20082;-89
2022/12/27 12:33:18;;;;;;;0.65;0.65;;;;;;;-5.50;90.69;99180.88;4961317;28;20057;-89
2022/12/27 12:36:20;;;;;;;0.60;0.60;;;;;;;-5.45;90.86;99186.56;4965821;28;20578;-88
2022/12/27 12:39:13;;;;;;;0.80;0.80;;;;;;;-5.45;91.04;99192.66;4921358;28;20455;-88
2022/12/27 12:42:08;;;;;;;0.73;0.73;;;;;;;-5.45;91.11;99187.38;4947947;28;20082;-89
2022/12/27 12:44:50;;;;;;;0.85;0.85;;;;;;;-5.48;91.07;99179.78;4964976;28;20123;-88
2022/12/27 12:47:39;;;;;;;0.70;0.70;;;;;;;-5.46;91.43;99180.47;4951786;28;20114;-89
2022/12/27 12:50:31;;;;;;;0.80;0.80;;;;;;;-5.47;91.53;99177.97;4953523;28;20081;-88
2022/12/27 12:53:29;;;;;;;0.77;0.77;;;;;;;-5.42;91.56;99177.56;4931682;28;20470;-88
2022/12/27 12:56:12;;;;;;;0.70;0.70;;;;;;;-5.45;91.80;99153.19;4933414;28;20076;-88
2022/12/27 12:58:56;;;;;;;0.73;0.73;;;;;;;-5.40;91.78;99173.00;4965447;28;20074;-89
2022/12/27 13:02:11;;;;;;;0.80;0.80;;;;;;;-5.42;91.90;99149.44;4965381;28;20124;-87
2022/12/27 13:04:47;;;;;;;0.70;0.70;;;;;;;-5.43;91.84;99144.34;4878112;29;20504;-88
2022/12/27 13:07:30;;;;;;;0.60;0.60;;;;;;;-5.42;92.21;99156.53;4864063;29;20068;-89
2022/12/27 13:10:35;;;;;;;0.70;0.70;;;;;;;-5.39;92.20;99146.56;4847714;29;20051;-90
2022/12/27 13:13:33;;;;;;;0.68;0.68;;;;;;;-5.37;92.34;99136.72;4875346;29;20579;-89
2022/12/27 13:16:20;;;;;;;0.75;0.75;;;;;;;-5.35;92.37;99144.47;4865135;29;20053;-89
2022/12/27 13:19:20;;;;;;;0.80;0.80;;;;;;;-5.30;92.48;99148.34;4879967;29;20048;-88
2022/12/27 13:22:11;;;;;;;0.68;0.68;;;;;;;-5.29;92.57;99144.75;4880073;29;20612;-88
2022/12/27 13:25:07;;;;;;;0.77;0.77;;;;;;;-5.32;92.77;99131.88;4859423;29;20576;-89
2022/12/27 13:27:48;;;;;;;0.63;0.63;;;;;;;-5.24;92.80;99139.09;4877876;29;20228;-89
2022/12/27 13:30:24;;;;;;;0.77;0.77;;;;;;;-5.21;92.76;99140.59;4879037;29;20157;-89
2022/12/27 13:32:57;;;;;;;0.60;0.60;;;;;;;-5.21;92.89;99140.59;4866053;29;20090;-89
2022/12/27 13:35:41;;;;;;;0.73;0.73;;;;;;;-5.19;92.92;99136.84;4848975;29;20533;-88
2022/12/27 13:38:27;;;;;;;0.77;0.77;;;;;;;-5.20;93.16;99122.03;4879075;29;20056;-89
2022/12/27 13:41:19;;;;;;;0.73;0.73;;;;;;;-5.10;93.30;99137.81;4930614;28;20046;-88
2022/12/27 13:44:21;;;;;;;0.70;0.70;;;;;;;-5.09;93.23;99142.09;4965631;29;20047;-88
2022/12/27 13:47:11;;;;;;;0.82;0.82;;;;;;;-5.11;93.23;99136.16;4940946;29;20051;-89
2022/12/27 13:50:03;;;;;;;0.63;0.63;;;;;;;-5.16;93.31;99122.59;4930848;28;20057;-88
2022/12/27 13:52:56;;;;;;;0.70;0.70;;;;;;;-5.09;93.66;99132.41;4974460;28;20051;-87
2022/12/27 13:55:47;;;;;;;0.70;0.70;;;;;;;-5.07;93.61;99125.19;4974529;28;20049;-89
2022/12/27 13:58:26;;;;;;;0.80;0.80;;;;;;;-5.08;93.95;99110.38;4955517;28;20055;-88